createdAt,value
2023-02-04T00:00:42.001Z,6.17
2023-02-04T00:03:10.478Z,6.11
2023-02-04T00:05:38.961Z,6.05
2023-02-04T00:08:07.594Z,6.02
2023-02-04T00:10:36.335Z,6.00
2023-02-04T00:13:05.369Z,6.03
2023-02-04T00:15:35.250Z,6.05
2023-02-04T00:18:04.145Z,6.07
2023-02-04T00:20:32.975Z,6.08
2023-02-04T00:23:01.549Z,6.14
2023-02-04T00:25:30.147Z,6.21
2023-02-04T00:27:58.616Z,6.24
2023-02-04T00:30:27.323Z,6.24
2023-02-04T00:32:57.233Z,6.22
2023-02-04T00:35:25.940Z,6.21
2023-02-04T00:37:55.090Z,6.19
2023-02-04T00:40:23.693Z,6.20
2023-02-04T00:42:52.227Z,6.16
2023-02-04T00:45:20.891Z,6.07
2023-02-04T00:47:49.536Z,5.96
2023-02-04T00:50:20.043Z,5.82
2023-02-04T00:52:48.588Z,5.71
2023-02-04T00:55:18.511Z,5.58
2023-02-04T00:57:48.272Z,5.62
2023-02-04T01:00:18.888Z,5.72
2023-02-04T01:02:47.597Z,5.86
2023-02-04T01:05:16.026Z,5.95
2023-02-04T01:07:47.689Z,6.06
2023-02-04T01:10:18.141Z,6.11
2023-02-04T01:12:46.680Z,6.13
2023-02-04T01:15:15.369Z,6.17
2023-02-04T01:17:43.943Z,6.15
2023-02-04T01:20:13.286Z,6.08
2023-02-04T01:22:41.780Z,6.05
2023-02-04T01:25:11.756Z,6.01
2023-02-04T01:27:43.515Z,5.95
2023-02-04T01:30:13.781Z,5.90
2023-02-04T01:32:42.527Z,5.78
2023-02-04T01:35:11.026Z,5.83
2023-02-04T01:37:41.307Z,5.83
2023-02-04T01:40:13.208Z,5.78
2023-02-04T01:42:42.404Z,5.72
2023-02-04T01:45:12.253Z,5.74
2023-02-04T01:47:41.537Z,5.75
2023-02-04T01:50:12.966Z,5.50
2023-02-04T01:52:42.544Z,5.78
2023-02-04T01:55:16.416Z,5.78
2023-02-04T01:57:45.855Z,5.76
2023-02-04T02:00:18.512Z,5.78
2023-02-04T02:02:50.819Z,5.74
2023-02-04T02:05:23.976Z,5.76
2023-02-04T02:07:55.438Z,5.80
2023-02-04T02:10:25.946Z,5.84
2023-02-04T02:12:56.042Z,5.83
2023-02-04T02:15:25.764Z,5.88
2023-02-04T02:17:55.244Z,5.90
2023-02-04T02:20:26.003Z,5.85
2023-02-04T02:23:04.339Z,5.81
2023-02-04T02:25:34.707Z,5.75
2023-02-04T02:28:08.905Z,5.66
2023-02-04T02:30:37.758Z,5.59
2023-02-04T02:33:07.984Z,5.58
2023-02-04T02:35:36.681Z,5.56
2023-02-04T02:38:05.204Z,5.51
2023-02-04T02:40:35.153Z,5.53
2023-02-04T02:43:05.085Z,5.54
2023-02-04T02:45:35.037Z,5.51
2023-02-04T02:48:04.154Z,5.41
2023-02-04T02:50:34.820Z,5.34
2023-02-04T02:53:04.351Z,5.44
2023-02-04T02:55:34.676Z,5.36
2023-02-04T02:58:06.947Z,5.25
2023-02-04T03:00:35.500Z,5.25
2023-02-04T03:03:08.068Z,5.26
2023-02-04T03:05:41.205Z,5.28
2023-02-04T03:08:12.483Z,5.33
2023-02-04T03:10:42.923Z,5.18
2023-02-04T03:13:12.526Z,5.32
2023-02-04T03:15:41.952Z,5.37
2023-02-04T03:18:11.509Z,5.39
2023-02-04T03:20:41.282Z,5.44
2023-02-04T03:23:09.965Z,5.46
2023-02-04T03:25:38.737Z,5.47
2023-02-04T03:28:08.937Z,5.41
2023-02-04T03:30:38.253Z,5.33
2023-02-04T03:33:07.735Z,5.33
2023-02-04T03:35:36.374Z,5.28
2023-02-04T03:38:04.851Z,5.23
2023-02-04T03:40:33.479Z,5.16
2023-02-04T03:43:01.975Z,5.16
2023-02-04T03:45:40.717Z,5.11
2023-02-04T03:48:13.419Z,5.06
2023-02-04T03:50:41.870Z,5.08
2023-02-04T03:53:10.801Z,5.13
2023-02-04T03:55:39.233Z,5.16
2023-02-04T03:58:07.885Z,5.19
2023-02-04T04:00:37.739Z,5.24
2023-02-04T04:03:06.315Z,5.26
2023-02-04T04:05:35.173Z,5.31
2023-02-04T04:08:03.834Z,5.37
2023-02-04T04:10:32.441Z,5.40
2023-02-04T04:13:01.086Z,5.44
2023-02-04T04:15:29.522Z,5.49
2023-02-04T04:17:59.500Z,5.53
2023-02-04T04:20:29.335Z,5.52
2023-02-04T04:22:57.891Z,5.49
2023-02-04T04:25:26.399Z,5.49
2023-02-04T04:27:54.988Z,5.48
2023-02-04T04:30:23.494Z,5.47
2023-02-04T04:32:52.193Z,5.34
2023-02-04T04:35:22.120Z,5.21
2023-02-04T04:37:50.621Z,5.06
2023-02-04T04:40:19.646Z,4.94
2023-02-04T04:42:48.165Z,4.84
2023-02-04T04:45:16.665Z,4.91
2023-02-04T04:47:45.201Z,5.05
2023-02-04T04:50:13.916Z,5.18
2023-02-04T04:52:43.824Z,5.29
2023-02-04T04:55:12.545Z,5.32
2023-02-04T04:57:41.038Z,5.34
2023-02-04T05:00:13.346Z,5.34
2023-02-04T05:02:42.109Z,5.31
2023-02-04T05:05:10.801Z,5.31
2023-02-04T05:07:39.360Z,5.35
2023-02-04T05:10:10.133Z,5.37
2023-02-04T05:12:38.832Z,5.42
2023-02-04T05:15:08.096Z,5.44
2023-02-04T05:17:36.672Z,5.45
2023-02-04T05:20:05.370Z,5.48
2023-02-04T05:22:33.836Z,5.49
2023-02-04T05:25:02.243Z,5.56
2023-02-04T05:27:32.183Z,5.61
2023-02-04T05:30:00.635Z,5.63
2023-02-04T05:32:29.159Z,5.68
2023-02-04T05:34:57.602Z,5.77
2023-02-04T05:37:27.103Z,5.82
2023-02-04T05:39:55.631Z,5.81
2023-02-04T05:42:24.133Z,5.82
2023-02-04T05:44:54.073Z,5.85
2023-02-04T05:47:22.569Z,5.83
2023-02-04T05:49:51.208Z,5.83
2023-02-04T05:52:19.761Z,5.82
2023-02-04T05:54:48.259Z,5.79
2023-02-04T05:57:16.703Z,5.74
2023-02-04T05:59:46.139Z,5.77
2023-02-04T06:02:16.155Z,5.79
2023-02-04T06:04:44.960Z,5.82
2023-02-04T06:07:13.395Z,5.81
2023-02-04T06:09:41.933Z,5.68
2023-02-04T06:12:11.349Z,5.53
2023-02-04T06:14:39.850Z,5.49
2023-02-04T06:17:08.304Z,5.47
2023-02-04T06:19:38.177Z,5.43
2023-02-04T06:22:06.608Z,5.38
2023-02-04T06:24:35.181Z,5.37
2023-02-04T06:27:04.766Z,5.40
2023-02-04T06:29:33.206Z,5.38
2023-02-04T06:32:01.779Z,5.31
2023-02-04T06:34:30.336Z,5.31
2023-02-04T06:37:00.289Z,5.30
2023-02-04T06:39:28.780Z,5.33
2023-02-04T06:41:57.206Z,5.38
2023-02-04T06:44:25.755Z,5.49
2023-02-04T06:46:54.315Z,5.68
2023-02-04T06:49:25.253Z,5.82
2023-02-04T06:51:55.466Z,5.90
2023-02-04T06:54:25.876Z,6.01
2023-02-04T06:56:54.407Z,6.11
2023-02-04T06:59:24.119Z,6.17
2023-02-04T07:01:52.589Z,6.19
2023-02-04T07:04:21.022Z,6.13
2023-02-04T07:06:49.776Z,6.20
2023-02-04T07:09:18.312Z,6.23
2023-02-04T07:11:48.623Z,6.22
2023-02-04T07:14:17.342Z,6.20
2023-02-04T07:16:45.810Z,6.23
2023-02-04T07:19:14.332Z,6.23
2023-02-04T07:21:42.841Z,6.24
2023-02-04T07:24:11.381Z,6.25
2023-02-04T07:26:39.893Z,6.26
2023-02-04T07:29:14.842Z,6.32
2023-02-04T07:31:51.771Z,6.31
2023-02-04T07:34:20.434Z,6.47
2023-02-04T07:36:49.099Z,6.64
2023-02-04T07:39:17.658Z,6.78
2023-02-04T07:41:46.161Z,6.98
2023-02-04T07:44:18.422Z,7.22
2023-02-04T07:46:46.913Z,7.40
2023-02-04T07:49:15.368Z,7.55
2023-02-04T07:51:43.934Z,7.67
2023-02-04T07:54:12.395Z,7.81
2023-02-04T07:56:40.841Z,8.01
2023-02-04T07:59:09.200Z,8.23
2023-02-04T08:01:39.176Z,8.46
2023-02-04T08:04:07.749Z,8.77
2023-02-04T08:06:36.181Z,9.14
2023-02-04T08:09:04.710Z,9.58
2023-02-04T08:11:33.190Z,9.90
2023-02-04T08:14:01.651Z,10.15
2023-02-04T08:16:30.201Z,10.29
2023-02-04T08:19:00.096Z,10.41
2023-02-04T08:21:28.556Z,10.53
2023-02-04T08:23:58.014Z,10.78
2023-02-04T08:26:26.514Z,11.00
2023-02-04T08:28:55.123Z,11.26
2023-02-04T08:31:23.672Z,11.44
2023-02-04T08:33:52.234Z,11.63
2023-02-04T08:36:22.089Z,11.77
2023-02-04T08:38:50.641Z,11.86
2023-02-04T08:41:19.140Z,11.96
2023-02-04T08:43:47.621Z,11.89
2023-02-04T08:46:16.198Z,12.03
2023-02-04T08:48:45.746Z,12.01
2023-02-04T08:51:14.472Z,12.06
2023-02-04T08:53:44.555Z,12.07
2023-02-04T08:56:16.770Z,12.08
2023-02-04T08:58:45.894Z,12.09
2023-02-04T09:01:14.538Z,12.13
2023-02-04T09:03:43.094Z,12.23
2023-02-04T09:06:11.658Z,12.33
2023-02-04T09:08:40.208Z,12.44
2023-02-04T09:11:12.483Z,12.58
2023-02-04T09:13:40.963Z,12.74
2023-02-04T09:16:09.558Z,12.80
2023-02-04T09:18:38.156Z,12.77
2023-02-04T09:21:07.089Z,12.84
2023-02-04T09:23:35.556Z,12.76
2023-02-04T09:26:04.678Z,12.76
2023-02-04T09:28:34.686Z,12.81
2023-02-04T09:31:04.628Z,12.83
2023-02-04T09:33:34.213Z,12.76
2023-02-04T09:36:02.781Z,12.91
2023-02-04T09:38:31.354Z,12.94
2023-02-04T09:41:03.676Z,13.06
2023-02-04T09:43:36.224Z,13.06
2023-02-04T09:46:05.706Z,13.13
2023-02-04T09:48:34.547Z,13.20
2023-02-04T09:51:08.829Z,13.14
2023-02-04T09:53:39.315Z,13.23
2023-02-04T09:56:11.000Z,13.29
2023-02-04T09:58:40.995Z,13.38
2023-02-04T10:01:15.888Z,13.38
2023-02-04T10:03:47.801Z,13.41
2023-02-04T10:06:18.177Z,13.48
2023-02-04T10:08:47.863Z,13.55
2023-02-04T10:11:17.604Z,13.66
2023-02-04T10:13:50.503Z,13.77
2023-02-04T10:16:24.163Z,13.71
2023-02-04T10:18:52.896Z,13.72
2023-02-04T10:21:25.924Z,13.73
2023-02-04T10:23:57.830Z,13.78
2023-02-04T10:26:29.578Z,13.89
2023-02-04T10:29:05.271Z,13.86
2023-02-04T10:31:39.001Z,14.05
2023-02-04T10:34:11.982Z,14.17
2023-02-04T10:36:41.716Z,14.25
2023-02-04T10:39:14.701Z,14.41
2023-02-04T10:41:49.663Z,14.47
2023-02-04T10:44:24.005Z,14.41
2023-02-04T10:47:00.747Z,14.65
2023-02-04T10:49:29.516Z,14.65
2023-02-04T10:51:57.997Z,14.84
2023-02-04T10:54:32.536Z,14.95
2023-02-04T10:57:08.596Z,15.01
2023-02-04T10:59:38.907Z,15.11
2023-02-04T11:02:30.579Z,15.05
2023-02-04T11:04:59.212Z,15.17
2023-02-04T11:07:27.735Z,15.31
2023-02-04T11:09:57.307Z,15.39
2023-02-04T11:12:39.181Z,15.46
2023-02-04T11:15:24.664Z,15.48
2023-02-04T11:18:04.779Z,15.53
2023-02-04T11:20:36.436Z,15.57
2023-02-04T11:23:32.444Z,15.63
2023-02-04T11:26:07.784Z,15.72
2023-02-04T11:28:58.485Z,15.85
2023-02-04T11:31:40.700Z,15.90
2023-02-04T11:34:27.005Z,15.96
2023-02-04T11:37:08.334Z,16.11
2023-02-04T11:39:41.422Z,16.15
2023-02-04T11:42:19.733Z,16.20
2023-02-04T11:44:56.236Z,16.20
2023-02-04T11:47:27.317Z,16.21
2023-02-04T11:49:58.886Z,16.30
2023-02-04T11:52:27.477Z,16.41
2023-02-04T11:54:57.422Z,16.50
2023-02-04T11:57:26.876Z,16.54
2023-02-04T11:59:55.577Z,16.57
2023-02-04T12:02:27.401Z,16.68
2023-02-04T12:04:58.873Z,16.73
2023-02-04T12:07:29.558Z,16.78
2023-02-04T12:09:59.080Z,16.82
2023-02-04T12:12:29.569Z,16.83
2023-02-04T12:14:59.661Z,16.89
2023-02-04T12:17:29.626Z,16.89
2023-02-04T12:19:58.222Z,16.87
2023-02-04T12:22:26.717Z,16.88
2023-02-04T12:24:55.294Z,16.91
2023-02-04T12:27:23.705Z,16.93
2023-02-04T12:29:52.230Z,16.90
2023-02-04T12:32:20.668Z,16.95
2023-02-04T12:34:50.462Z,16.92
2023-02-04T12:37:21.616Z,16.90
2023-02-04T12:39:50.181Z,16.91
2023-02-04T12:42:18.571Z,16.98
2023-02-04T12:44:47.136Z,16.92
2023-02-04T12:47:15.768Z,16.89
2023-02-04T12:49:44.211Z,16.92
2023-02-04T12:52:14.115Z,16.99
2023-02-04T12:54:43.850Z,17.03
2023-02-04T12:57:14.709Z,17.03
2023-02-04T12:59:43.223Z,17.02
2023-02-04T13:02:12.260Z,17.04
2023-02-04T13:04:41.683Z,17.07
2023-02-04T13:07:10.504Z,17.13
2023-02-04T13:09:40.348Z,17.14
2023-02-04T13:12:08.915Z,17.91
2023-02-04T13:14:37.407Z,17.63
2023-02-04T13:17:05.840Z,17.52
2023-02-04T13:19:34.759Z,17.46
2023-02-04T13:22:03.696Z,17.43
2023-02-04T13:24:32.261Z,17.33
2023-02-04T13:27:02.187Z,17.31
2023-02-04T13:29:30.579Z,17.25
2023-02-04T13:31:59.071Z,17.21
2023-02-04T13:34:27.513Z,17.13
2023-02-04T13:36:56.175Z,17.11
2023-02-04T13:39:25.386Z,17.12
2023-02-04T13:41:53.837Z,17.03
2023-02-04T13:44:24.519Z,17.09
2023-02-04T13:46:53.390Z,17.02
2023-02-04T13:49:23.586Z,17.01
2023-02-04T13:51:52.348Z,16.99
2023-02-04T13:54:20.833Z,16.92
2023-02-04T13:56:49.366Z,16.88
2023-02-04T13:59:18.837Z,16.95
2023-02-04T14:01:50.185Z,16.90
2023-02-04T14:04:18.743Z,16.89
2023-02-04T14:06:47.202Z,16.82
2023-02-04T14:09:15.805Z,16.83
2023-02-04T14:11:44.270Z,16.86
2023-02-04T14:14:12.698Z,16.86
2023-02-04T14:16:41.342Z,16.57
2023-02-04T14:19:11.446Z,16.89
2023-02-04T14:21:39.883Z,16.74
2023-02-04T14:24:08.712Z,16.72
2023-02-04T14:26:37.263Z,16.72
2023-02-04T14:29:07.172Z,16.74
2023-02-04T14:31:36.737Z,16.69
2023-02-04T14:34:05.276Z,16.63
2023-02-04T14:36:35.278Z,16.62
2023-02-04T14:39:03.721Z,16.58
2023-02-04T14:41:32.595Z,16.53
2023-02-04T14:44:01.040Z,16.55
2023-02-04T14:46:29.531Z,16.48
2023-02-04T14:48:58.102Z,16.45
2023-02-04T14:51:26.695Z,16.37
2023-02-04T14:53:56.630Z,16.33
2023-02-04T14:56:25.109Z,16.27
2023-02-04T14:58:53.481Z,16.20
2023-02-04T15:01:22.529Z,16.12
2023-02-04T15:03:51.190Z,16.07
2023-02-04T15:06:19.646Z,16.10
2023-02-04T15:08:48.089Z,16.08
2023-02-04T15:11:18.020Z,16.01
2023-02-04T15:13:46.486Z,15.94
2023-02-04T15:16:15.246Z,15.92
2023-02-04T15:18:44.073Z,15.88
2023-02-04T15:21:13.200Z,15.79
2023-02-04T15:23:44.028Z,15.77
2023-02-04T15:26:12.705Z,15.75
2023-02-04T15:28:42.614Z,15.71
2023-02-04T15:31:12.462Z,15.68
2023-02-04T15:33:42.406Z,15.63
2023-02-04T15:36:11.036Z,15.57
2023-02-04T15:38:39.504Z,15.53
2023-02-04T15:41:07.971Z,15.48
2023-02-04T15:43:36.414Z,15.43
2023-02-04T15:46:06.771Z,15.38
2023-02-04T15:48:35.389Z,15.37
2023-02-04T15:51:03.958Z,15.33
2023-02-04T15:53:32.362Z,15.26
2023-02-04T15:56:00.982Z,15.17
2023-02-04T15:58:29.414Z,15.11
2023-02-04T16:00:58.914Z,15.08
2023-02-04T16:03:28.866Z,15.03
2023-02-04T16:05:57.337Z,14.96
2023-02-04T16:08:25.878Z,14.89
2023-02-04T16:10:54.686Z,14.90
2023-02-04T16:13:23.220Z,14.85
2023-02-04T16:15:51.622Z,14.87
2023-02-04T16:18:20.201Z,14.81
2023-02-04T16:20:50.079Z,14.80
2023-02-04T16:23:18.528Z,14.72
2023-02-04T16:25:47.106Z,14.69
2023-02-04T16:28:15.714Z,14.65
2023-02-04T16:30:44.477Z,14.60
2023-02-04T16:33:13.029Z,14.56
2023-02-04T16:36:02.165Z,14.54
2023-02-04T16:38:31.883Z,14.45
2023-02-04T16:41:00.885Z,14.44
2023-02-04T16:43:30.021Z,14.41
2023-02-04T16:45:58.906Z,14.43
2023-02-04T16:48:28.761Z,14.39
2023-02-04T16:50:57.196Z,14.35
2023-02-04T16:53:27.068Z,14.32
2023-02-04T16:55:56.099Z,14.28
2023-02-04T16:58:25.605Z,14.24
2023-02-04T17:00:56.945Z,14.21
2023-02-04T17:03:25.396Z,14.15
2023-02-04T17:05:53.846Z,14.13
2023-02-04T17:08:23.451Z,14.09
2023-02-04T17:11:11.226Z,14.06
2023-02-04T17:13:39.899Z,13.97
2023-02-04T17:16:08.646Z,14.21
2023-02-04T17:18:38.143Z,14.04
2023-02-04T17:21:07.063Z,13.90
2023-02-04T17:23:35.717Z,13.85
2023-02-04T17:26:05.977Z,13.85
2023-02-04T17:28:34.519Z,13.79
2023-02-04T17:31:02.993Z,13.71
2023-02-04T17:33:32.740Z,13.69
2023-02-04T17:36:01.460Z,13.64
2023-02-04T17:38:30.399Z,13.49
2023-02-04T17:41:01.036Z,13.62
2023-02-04T17:43:31.078Z,13.59
2023-02-04T17:45:59.594Z,13.55
2023-02-04T17:48:28.070Z,13.52
2023-02-04T17:50:56.581Z,13.55
2023-02-04T17:53:25.100Z,13.51
2023-02-04T17:55:53.946Z,13.52
2023-02-04T17:58:24.520Z,13.46
2023-02-04T18:00:55.567Z,13.42
2023-02-04T18:03:27.018Z,13.47
2023-02-04T18:05:58.142Z,13.40
2023-02-04T18:08:31.840Z,13.36
2023-02-04T18:11:00.425Z,13.30
2023-02-04T18:13:32.934Z,13.31
2023-02-04T18:16:10.351Z,13.27
2023-02-04T18:18:40.289Z,13.23
2023-02-04T18:21:20.610Z,13.17
2023-02-04T18:23:49.911Z,13.12
2023-02-04T18:26:20.314Z,13.12
2023-02-04T18:28:50.876Z,13.07
2023-02-04T18:31:33.729Z,12.93
2023-02-04T18:34:03.161Z,13.07
2023-02-04T18:36:34.838Z,13.00
2023-02-04T18:39:16.708Z,13.03
2023-02-04T18:41:49.144Z,12.70
2023-02-04T18:44:29.102Z,12.98
2023-02-04T18:46:59.328Z,13.05
2023-02-04T18:49:29.735Z,12.72
2023-02-04T18:51:59.837Z,12.98
2023-02-04T18:54:36.795Z,12.99
2023-02-04T18:57:29.250Z,12.89
2023-02-04T19:00:22.155Z,12.77
2023-02-04T19:02:56.578Z,12.80
2023-02-04T19:05:30.119Z,12.77
2023-02-04T19:08:14.818Z,12.72
2023-02-04T19:10:43.981Z,12.57
2023-02-04T19:13:19.168Z,12.51
2023-02-04T19:15:57.512Z,12.65
2023-02-04T19:18:29.086Z,12.60
2023-02-04T19:21:02.739Z,12.60
2023-02-04T19:23:37.653Z,12.59
2023-02-04T19:26:26.555Z,12.58
2023-02-04T19:28:55.768Z,12.55
2023-02-04T19:31:24.218Z,12.53
2023-02-04T19:33:55.606Z,12.58
2023-02-04T19:36:35.160Z,12.55
2023-02-04T19:39:08.336Z,12.49
2023-02-04T19:41:47.194Z,12.46
2023-02-04T19:44:38.404Z,12.38
2023-02-04T19:47:28.755Z,12.35
2023-02-04T19:50:15.095Z,12.29
2023-02-04T19:52:48.134Z,12.33
2023-02-04T19:55:32.768Z,12.30
2023-02-04T19:58:10.855Z,12.27
2023-02-04T20:00:44.933Z,12.13
2023-02-04T20:03:31.084Z,12.09
2023-02-04T20:06:08.890Z,12.23
2023-02-04T20:08:48.304Z,12.26
2023-02-04T20:11:47.393Z,12.20
2023-02-04T20:14:46.212Z,12.21
2023-02-04T20:17:35.536Z,11.92
2023-02-04T20:20:19.978Z,12.13
2023-02-04T20:22:51.761Z,12.13
2023-02-04T20:25:39.285Z,12.09
2023-02-04T20:28:32.720Z,12.08
2023-02-04T20:31:02.518Z,12.05
2023-02-04T20:33:35.002Z,12.02
2023-02-04T20:36:42.646Z,12.13
2023-02-04T20:39:45.653Z,12.09
2023-02-04T20:42:34.801Z,12.06
2023-02-04T20:45:30.342Z,12.07
2023-02-04T20:48:01.948Z,12.08
2023-02-04T20:50:42.017Z,12.07
2023-02-04T20:53:22.789Z,12.03
2023-02-04T20:55:55.339Z,12.00
2023-02-04T20:58:25.873Z,11.96
2023-02-04T21:00:56.261Z,11.77
2023-02-04T21:03:30.504Z,11.93
2023-02-04T21:06:01.041Z,11.96
2023-02-04T21:08:41.637Z,11.91
2023-02-04T21:11:11.807Z,11.87
2023-02-04T21:13:41.098Z,11.91
2023-02-04T21:16:09.950Z,11.93
2023-02-04T21:18:39.124Z,11.94
2023-02-04T21:21:09.643Z,11.96
2023-02-04T21:23:39.921Z,11.97
2023-02-04T21:26:08.742Z,11.91
2023-02-04T21:28:38.649Z,11.87
2023-02-04T21:31:07.432Z,11.96
2023-02-04T21:33:35.936Z,11.92
2023-02-04T21:36:05.809Z,11.91
2023-02-04T21:38:34.283Z,11.89
2023-02-04T21:41:02.786Z,11.86
2023-02-04T21:43:31.249Z,11.89
2023-02-04T21:46:01.331Z,11.92
2023-02-04T21:48:30.914Z,11.91
2023-02-04T21:50:59.400Z,11.85
2023-02-04T21:53:27.906Z,11.84
2023-02-04T21:55:58.424Z,11.87
2023-02-04T21:58:27.907Z,11.88
2023-02-04T22:00:56.535Z,11.87
2023-02-04T22:03:26.608Z,11.86
2023-02-04T22:05:55.195Z,11.86
2023-02-04T22:08:23.816Z,11.83
2023-02-04T22:10:52.355Z,11.87
2023-02-04T22:13:38.437Z,11.84
2023-02-04T22:16:06.993Z,11.79
2023-02-04T22:18:36.868Z,11.81
2023-02-04T22:21:05.601Z,11.80
2023-02-04T22:23:34.004Z,11.81
2023-02-04T22:26:02.500Z,11.78
2023-02-04T22:28:31.023Z,11.76
2023-02-04T22:30:59.583Z,11.79
2023-02-04T22:33:28.120Z,11.78
2023-02-04T22:35:58.080Z,11.77
2023-02-04T22:38:26.653Z,11.72
2023-02-04T22:40:55.076Z,11.71
2023-02-04T22:43:23.745Z,11.71
2023-02-04T22:45:52.175Z,11.73
2023-02-04T22:48:21.628Z,11.67
2023-02-04T22:50:50.120Z,11.61
2023-02-04T22:53:20.131Z,11.65
2023-02-04T22:55:48.737Z,11.61
2023-02-04T22:58:17.176Z,11.59
2023-02-04T23:00:45.708Z,11.57
2023-02-04T23:03:14.197Z,11.59
2023-02-04T23:05:42.759Z,11.66
2023-02-04T23:08:11.224Z,11.65
2023-02-04T23:10:41.311Z,11.67
2023-02-04T23:13:10.932Z,11.67
2023-02-04T23:15:39.862Z,11.65
2023-02-04T23:18:08.313Z,11.61
2023-02-04T23:20:39.499Z,11.61
2023-02-04T23:23:09.138Z,11.58
2023-02-04T23:25:37.700Z,11.59
2023-02-04T23:28:07.967Z,11.59
2023-02-04T23:30:36.434Z,11.54
2023-02-04T23:33:05.087Z,11.56
2023-02-04T23:35:35.550Z,11.54
2023-02-04T23:38:04.604Z,11.49
2023-02-04T23:40:33.664Z,11.48
2023-02-04T23:43:02.208Z,11.45
2023-02-04T23:45:32.491Z,11.45
2023-02-04T23:48:01.319Z,11.41
2023-02-04T23:50:29.869Z,11.40
2023-02-04T23:52:58.387Z,11.44
2023-02-04T23:55:26.905Z,11.42
2023-02-04T23:57:55.410Z,11.41
